Time;durP1;ratioP1;P1;durP2;ratioP2;P2;SDS_P1;SDS_P2;PMS_P1;PMS_P2;Temp;Humidity;BMP_temperature;BMP_pressure;BME280_temperature;BME280_humidity;BME280_pressure;Samples;Min_cycle;Max_cycle;Signal;HPM_P1;HPM_P2
2021/09/01 00:01:14;;;;;;;14.55;4.25;;;;;;;;;;4968347;28;20133;-69
2021/09/01 00:03:40;;;;;;;16.17;4.07;;;;;;;;;;4987205;28;20037;-69
2021/09/01 00:06:07;;;;;;;17.63;4.28;;;;;;;;;;4985288;28;20054;-69
2021/09/01 00:08:33;;;;;;;16.98;4.97;;;;;;;;;;4984089;28;20039;-69
2021/09/01 00:11:00;;;;;;;15.85;5.07;;;;;;;;;;4984437;28;20109;-69
2021/09/01 00:13:26;;;;;;;15.95;4.72;;;;;;;;;;4985333;28;20047;-69
2021/09/01 00:15:52;;;;;;;15.13;4.13;;;;;;;;;;4984945;28;20050;-69
2021/09/01 00:18:18;;;;;;;16.55;4.15;;;;;;;;;;4985067;28;20108;-69
2021/09/01 00:20:44;;;;;;;16.48;4.18;;;;;;;;;;4966992;28;20058;-69
2021/09/01 00:23:15;;;;;;;16.23;4.40;;;;;;;;;;4985175;28;20591;-69
2021/09/01 00:25:42;;;;;;;18.08;4.35;;;;;;;;;;4981738;28;20053;-69
2021/09/01 00:28:09;;;;;;;20.30;4.93;;;;;;;;;;4984936;28;20125;-69
2021/09/01 00:30:35;;;;;;;23.02;5.35;;;;;;;;;;4985497;28;20042;-69
2021/09/01 00:33:01;;;;;;;17.08;5.25;;;;;;;;;;4985811;28;20122;-70
2021/09/01 00:35:27;;;;;;;19.55;5.88;;;;;;;;;;4982650;28;20121;-69
2021/09/01 00:37:54;;;;;;;19.67;6.15;;;;;;;;;;4986339;28;20070;-69
2021/09/01 00:40:20;;;;;;;21.25;5.40;;;;;;;;;;4984196;28;20074;-70
2021/09/01 00:42:46;;;;;;;23.70;6.00;;;;;;;;;;4984546;28;20072;-70
2021/09/01 00:45:13;;;;;;;17.83;5.28;;;;;;;;;;4986224;28;20064;-70
2021/09/01 00:47:39;;;;;;;19.75;5.82;;;;;;;;;;4986428;28;20477;-69
2021/09/01 00:50:06;;;;;;;19.58;5.22;;;;;;;;;;5003905;28;20050;-69
2021/09/01 00:52:33;;;;;;;17.35;5.13;;;;;;;;;;4971205;28;20480;-69
2021/09/01 00:55:00;;;;;;;17.48;4.03;;;;;;;;;;4988079;28;20096;-69
2021/09/01 00:57:26;;;;;;;19.02;5.30;;;;;;;;;;4971191;28;20555;-69
2021/09/01 00:59:52;;;;;;;18.35;4.47;;;;;;;;;;5002175;28;20385;-69
2021/09/01 01:02:21;;;;;;;15.57;4.78;;;;;;;;;;4970350;28;20165;-69
2021/09/01 01:04:47;;;;;;;15.85;4.20;;;;;;;;;;4986851;28;20046;-69
2021/09/01 01:07:13;;;;;;;18.35;5.18;;;;;;;;;;4986420;28;20066;-69
2021/09/01 01:09:41;;;;;;;25.33;5.20;;;;;;;;;;4986733;28;21233;-69
2021/09/01 01:12:10;;;;;;;17.58;4.95;;;;;;;;;;4985812;28;20081;-69
2021/09/01 01:14:38;;;;;;;16.73;4.15;;;;;;;;;;4986925;28;20102;-69
2021/09/01 01:17:05;;;;;;;14.20;4.10;;;;;;;;;;4986503;28;20049;-70
2021/09/01 01:19:32;;;;;;;24.60;4.57;;;;;;;;;;4987275;28;20073;-69
2021/09/01 01:21:58;;;;;;;13.65;4.05;;;;;;;;;;4986578;28;20705;-70
2021/09/01 01:24:26;;;;;;;17.55;5.10;;;;;;;;;;5004676;28;20144;-70
2021/09/01 01:26:52;;;;;;;14.10;4.15;;;;;;;;;;4986746;28;20072;-70
2021/09/01 01:29:19;;;;;;;14.98;4.20;;;;;;;;;;5003974;28;20357;-69
2021/09/01 01:31:45;;;;;;;13.75;4.13;;;;;;;;;;4986264;28;20038;-70
2021/09/01 01:34:13;;;;;;;15.85;5.10;;;;;;;;;;5003082;28;20046;-70
2021/09/01 01:36:39;;;;;;;14.93;4.70;;;;;;;;;;4986304;28;20068;-69
2021/09/01 01:39:05;;;;;;;13.00;4.03;;;;;;;;;;4986543;28;20100;-69
2021/09/01 01:41:31;;;;;;;13.07;4.20;;;;;;;;;;4987432;28;20810;-70
2021/09/01 01:43:58;;;;;;;14.13;4.97;;;;;;;;;;5002344;28;20072;-70
2021/09/01 01:46:24;;;;;;;18.52;5.32;;;;;;;;;;4987679;28;20057;-69
2021/09/01 01:48:50;;;;;;;18.63;5.25;;;;;;;;;;4985675;28;20137;-70
2021/09/01 01:51:16;;;;;;;14.57;4.43;;;;;;;;;;4987385;28;20056;-69
2021/09/01 01:53:42;;;;;;;16.00;4.35;;;;;;;;;;4987758;28;20072;-69
2021/09/01 01:56:09;;;;;;;19.88;4.97;;;;;;;;;;5003535;28;20038;-70
2021/09/01 01:58:35;;;;;;;23.58;5.65;;;;;;;;;;4987701;28;20116;-69
2021/09/01 02:01:01;;;;;;;16.52;4.68;;;;;;;;;;4985371;28;20148;-69
2021/09/01 02:03:27;;;;;;;18.50;4.80;;;;;;;;;;4984698;28;20046;-70
2021/09/01 02:05:53;;;;;;;15.35;4.85;;;;;;;;;;5003812;28;20087;-69
2021/09/01 02:08:19;;;;;;;16.80;4.55;;;;;;;;;;4988406;28;20064;-69
2021/09/01 02:10:46;;;;;;;18.88;4.75;;;;;;;;;;5001556;28;20049;-69
2021/09/01 02:13:12;;;;;;;17.38;4.50;;;;;;;;;;5003786;28;20539;-70
2021/09/01 02:15:38;;;;;;;17.85;5.13;;;;;;;;;;4986713;28;20107;-69
2021/09/01 02:18:04;;;;;;;13.93;5.22;;;;;;;;;;5002891;28;20060;-69
2021/09/01 02:20:30;;;;;;;16.40;5.10;;;;;;;;;;5002052;28;20046;-69
2021/09/01 02:22:56;;;;;;;18.75;5.10;;;;;;;;;;4988135;28;20136;-69
2021/09/01 02:25:26;;;;;;;13.63;4.75;;;;;;;;;;5002598;28;20088;-70
2021/09/01 02:27:52;;;;;;;21.55;5.05;;;;;;;;;;5003115;28;20061;-69
2021/09/01 02:30:21;;;;;;;13.77;4.63;;;;;;;;;;4987271;28;20061;-69
2021/09/01 02:32:48;;;;;;;19.02;5.28;;;;;;;;;;4968993;28;20527;-69
2021/09/01 02:35:14;;;;;;;16.50;4.72;;;;;;;;;;4987029;28;20153;-69
2021/09/01 02:37:40;;;;;;;17.30;4.50;;;;;;;;;;4985836;28;21339;-69
2021/09/01 02:40:07;;;;;;;20.55;4.90;;;;;;;;;;5001861;28;20291;-69
2021/09/01 02:42:33;;;;;;;13.63;4.40;;;;;;;;;;4987505;28;20058;-69
2021/09/01 02:45:00;;;;;;;14.27;4.32;;;;;;;;;;4972206;28;20073;-69
2021/09/01 02:47:26;;;;;;;16.30;4.40;;;;;;;;;;4986099;28;20046;-69
2021/09/01 02:49:53;;;;;;;18.65;4.80;;;;;;;;;;4984455;28;20080;-69
2021/09/01 02:52:19;;;;;;;18.38;5.13;;;;;;;;;;5004001;28;20101;-70
2021/09/01 02:54:45;;;;;;;18.65;4.57;;;;;;;;;;4989287;28;20489;-69
2021/09/01 02:57:11;;;;;;;17.83;4.60;;;;;;;;;;5005885;28;20054;-69
2021/09/01 02:59:37;;;;;;;14.10;3.95;;;;;;;;;;4990072;28;20038;-69
2021/09/01 03:02:03;;;;;;;15.75;4.63;;;;;;;;;;4989506;28;20054;-69
2021/09/01 03:04:30;;;;;;;13.68;4.18;;;;;;;;;;4988099;28;20065;-69
2021/09/01 03:06:56;;;;;;;17.63;4.05;;;;;;;;;;4986882;28;20436;-69
2021/09/01 03:09:22;;;;;;;18.98;4.53;;;;;;;;;;5002021;28;20065;-69
2021/09/01 03:11:48;;;;;;;17.50;4.75;;;;;;;;;;4986592;28;20064;-69
2021/09/01 03:14:14;;;;;;;14.48;3.70;;;;;;;;;;4987264;28;20054;-69
2021/09/01 03:16:40;;;;;;;14.82;4.07;;;;;;;;;;5002067;28;20498;-69
2021/09/01 03:19:07;;;;;;;15.15;4.07;;;;;;;;;;4985921;28;20046;-69
2021/09/01 03:21:33;;;;;;;18.10;5.10;;;;;;;;;;4983592;28;20054;-68
2021/09/01 03:23:59;;;;;;;18.83;3.92;;;;;;;;;;4986609;28;20165;-69
2021/09/01 03:26:28;;;;;;;15.93;4.05;;;;;;;;;;4985795;28;20105;-69
2021/09/01 03:28:54;;;;;;;17.27;5.07;;;;;;;;;;4985941;28;20045;-69
2021/09/01 03:31:20;;;;;;;11.48;3.30;;;;;;;;;;4986103;28;20053;-70
2021/09/01 03:33:47;;;;;;;14.82;4.18;;;;;;;;;;4986790;28;20042;-69
2021/09/01 03:36:13;;;;;;;16.98;4.78;;;;;;;;;;4969821;28;20133;-69
2021/09/01 03:38:39;;;;;;;19.15;4.45;;;;;;;;;;4988238;28;20042;-69
2021/09/01 03:41:05;;;;;;;16.08;4.75;;;;;;;;;;4984959;28;20050;-69
2021/09/01 03:43:31;;;;;;;17.92;4.15;;;;;;;;;;4985720;28;20383;-70
2021/09/01 03:45:57;;;;;;;15.48;4.68;;;;;;;;;;4986568;28;20104;-70
2021/09/01 03:48:23;;;;;;;18.23;5.18;;;;;;;;;;4988710;28;20048;-69
2021/09/01 03:50:50;;;;;;;12.70;4.55;;;;;;;;;;4987807;28;20054;-69
2021/09/01 03:53:19;;;;;;;14.77;4.47;;;;;;;;;;4987636;28;20097;-69
2021/09/01 03:55:45;;;;;;;18.40;4.65;;;;;;;;;;4988737;28;20049;-69
2021/09/01 03:58:12;;;;;;;14.13;4.60;;;;;;;;;;4989419;28;20551;-69
2021/09/01 04:00:40;;;;;;;15.20;4.28;;;;;;;;;;4988051;28;20052;-70
2021/09/01 04:03:06;;;;;;;15.63;4.55;;;;;;;;;;4989197;28;20046;-69
2021/09/01 04:05:33;;;;;;;13.65;4.10;;;;;;;;;;5006446;28;20039;-69
2021/09/01 04:07:59;;;;;;;14.88;4.32;;;;;;;;;;4999321;28;20103;-69
2021/09/01 04:10:25;;;;;;;16.23;4.28;;;;;;;;;;4987825;28;20104;-69
2021/09/01 04:12:51;;;;;;;18.73;5.05;;;;;;;;;;5003306;28;20063;-69
2021/09/01 04:15:18;;;;;;;13.40;4.25;;;;;;;;;;4988095;28;20144;-69
2021/09/01 04:17:44;;;;;;;13.18;3.78;;;;;;;;;;5005306;28;20046;-69
2021/09/01 04:20:10;;;;;;;15.95;4.82;;;;;;;;;;4988346;28;20481;-70
2021/09/01 04:22:36;;;;;;;13.38;4.43;;;;;;;;;;5004645;28;20045;-70
2021/09/01 04:25:04;;;;;;;15.52;4.18;;;;;;;;;;4986724;28;20054;-69
2021/09/01 04:27:30;;;;;;;19.35;4.75;;;;;;;;;;4971792;28;20485;-69
2021/09/01 04:29:56;;;;;;;13.45;4.30;;;;;;;;;;5005954;28;20054;-69
2021/09/01 04:32:22;;;;;;;14.27;4.75;;;;;;;;;;5002467;28;20488;-70
2021/09/01 04:34:49;;;;;;;23.77;5.78;;;;;;;;;;4987552;28;20493;-69
2021/09/01 04:37:15;;;;;;;13.10;4.30;;;;;;;;;;4987710;28;20069;-69
2021/09/01 04:39:41;;;;;;;11.73;3.97;;;;;;;;;;5004304;28;20030;-69
2021/09/01 04:42:07;;;;;;;15.65;4.25;;;;;;;;;;4988052;28;20156;-69
2021/09/01 04:44:33;;;;;;;14.45;4.15;;;;;;;;;;4987021;28;20081;-69
2021/09/01 04:47:00;;;;;;;18.08;4.63;;;;;;;;;;5006527;28;20041;-69
2021/09/01 04:49:26;;;;;;;13.43;4.30;;;;;;;;;;4984169;28;20089;-69
2021/09/01 04:51:52;;;;;;;17.27;3.90;;;;;;;;;;4985308;28;20058;-69
2021/09/01 04:54:19;;;;;;;14.23;3.90;;;;;;;;;;4984323;28;20042;-69
2021/09/01 04:56:45;;;;;;;17.00;5.15;;;;;;;;;;4987112;28;20073;-68
2021/09/01 04:59:11;;;;;;;16.58;4.60;;;;;;;;;;4985451;28;20046;-69
2021/09/01 05:01:37;;;;;;;10.18;3.70;;;;;;;;;;4987101;28;20529;-70
2021/09/01 05:04:03;;;;;;;12.73;4.95;;;;;;;;;;4986908;28;20543;-69
2021/09/01 05:06:30;;;;;;;15.88;4.45;;;;;;;;;;4981441;28;20067;-69
2021/09/01 05:08:56;;;;;;;12.70;3.97;;;;;;;;;;4999573;28;20453;-69
2021/09/01 05:11:23;;;;;;;19.17;4.30;;;;;;;;;;4985939;28;20050;-70
2021/09/01 05:13:49;;;;;;;20.95;4.93;;;;;;;;;;4984609;28;20064;-69
2021/09/01 05:16:15;;;;;;;11.35;4.13;;;;;;;;;;4984903;28;20042;-69
2021/09/01 05:18:42;;;;;;;16.15;4.75;;;;;;;;;;4984059;28;20165;-69
2021/09/01 05:21:12;;;;;;;11.32;3.70;;;;;;;;;;4999172;28;20049;-69
2021/09/01 05:23:40;;;;;;;16.08;4.38;;;;;;;;;;4984105;28;20527;-69
2021/09/01 05:26:07;;;;;;;11.77;4.10;;;;;;;;;;4984822;28;20042;-69
2021/09/01 05:28:34;;;;;;;12.80;4.68;;;;;;;;;;4984023;28;20069;-69
2021/09/01 05:31:01;;;;;;;19.15;4.93;;;;;;;;;;4985410;28;20104;-70
2021/09/01 05:33:29;;;;;;;16.60;5.85;;;;;;;;;;4984229;28;20050;-70
2021/09/01 05:35:55;;;;;;;12.70;4.80;;;;;;;;;;4982649;28;20038;-70
2021/09/01 05:38:21;;;;;;;15.52;5.65;;;;;;;;;;4984652;28;20078;-71
2021/09/01 05:40:48;;;;;;;15.05;4.97;;;;;;;;;;4982653;28;20145;-70
2021/09/01 05:43:16;;;;;;;16.17;4.78;;;;;;;;;;4982192;28;20064;-69
2021/09/01 05:45:42;;;;;;;19.20;5.10;;;;;;;;;;4982820;28;20084;-70
2021/09/01 05:48:09;;;;;;;14.23;5.20;;;;;;;;;;4985127;28;20049;-70
2021/09/01 05:50:35;;;;;;;18.30;5.05;;;;;;;;;;4988877;28;20416;-69
2021/09/01 05:53:02;;;;;;;23.98;5.20;;;;;;;;;;5009368;28;20064;-69
2021/09/01 05:55:30;;;;;;;14.88;4.93;;;;;;;;;;4992060;28;20042;-70
2021/09/01 05:58:02;;;;;;;17.17;5.28;;;;;;;;;;4978161;28;20068;-69
2021/09/01 06:00:32;;;;;;;15.93;4.60;;;;;;;;;;4991741;28;20056;-70
2021/09/01 06:03:05;;;;;;;16.98;4.65;;;;;;;;;;4991149;28;20102;-69
2021/09/01 06:05:31;;;;;;;12.35;4.22;;;;;;;;;;4992883;28;20058;-69
2021/09/01 06:07:59;;;;;;;17.25;4.43;;;;;;;;;;4993058;28;20050;-69
2021/09/01 06:10:28;;;;;;;21.33;4.97;;;;;;;;;;4992215;28;20083;-71
2021/09/01 06:12:55;;;;;;;12.95;3.85;;;;;;;;;;5001253;28;20104;-70
2021/09/01 06:15:22;;;;;;;14.45;4.50;;;;;;;;;;5009652;28;20061;-69
2021/09/01 06:17:48;;;;;;;13.77;4.35;;;;;;;;;;5007171;28;20111;-69
2021/09/01 06:20:15;;;;;;;21.92;4.40;;;;;;;;;;4991838;28;20046;-69
2021/09/01 06:22:41;;;;;;;18.08;4.07;;;;;;;;;;5009968;28;20049;-70
2021/09/01 06:25:07;;;;;;;21.83;5.85;;;;;;;;;;5008989;28;22144;-69
2021/09/01 06:27:34;;;;;;;15.15;4.25;;;;;;;;;;5010277;28;20107;-69
2021/09/01 06:30:00;;;;;;;17.30;4.22;;;;;;;;;;4995817;28;20076;-69
2021/09/01 06:32:26;;;;;;;15.45;3.95;;;;;;;;;;5008689;28;20143;-71
2021/09/01 06:34:52;;;;;;;13.75;3.72;;;;;;;;;;4993547;28;20131;-70
2021/09/01 06:37:19;;;;;;;13.15;3.72;;;;;;;;;;5002352;28;20790;-71
2021/09/01 06:39:45;;;;;;;11.27;4.30;;;;;;;;;;5008879;28;20040;-70
2021/09/01 06:42:11;;;;;;;13.43;3.85;;;;;;;;;;5008410;28;20046;-70
2021/09/01 06:44:37;;;;;;;14.57;3.63;;;;;;;;;;5008761;28;20038;-70
2021/09/01 06:47:05;;;;;;;11.27;3.50;;;;;;;;;;4992353;28;20088;-70
2021/09/01 06:49:31;;;;;;;8.52;3.75;;;;;;;;;;4998985;28;20054;-71
2021/09/01 06:51:57;;;;;;;13.05;3.85;;;;;;;;;;5002461;28;20526;-70
2021/09/01 06:54:24;;;;;;;12.68;3.65;;;;;;;;;;4977483;28;20511;-70
2021/09/01 06:56:50;;;;;;;9.88;3.35;;;;;;;;;;4992238;28;20050;-71
2021/09/01 06:59:16;;;;;;;13.75;3.85;;;;;;;;;;4991568;28;20046;-72
2021/09/01 07:01:42;;;;;;;13.35;3.60;;;;;;;;;;4994181;28;20085;-71
2021/09/01 07:04:08;;;;;;;13.98;3.22;;;;;;;;;;4994265;28;20390;-70
2021/09/01 07:06:35;;;;;;;11.55;3.63;;;;;;;;;;4981223;28;20137;-70
2021/09/01 07:09:01;;;;;;;13.95;3.20;;;;;;;;;;4992287;28;20095;-69
2021/09/01 07:11:27;;;;;;;11.73;3.33;;;;;;;;;;4992323;28;20091;-69
2021/09/01 07:13:53;;;;;;;11.23;3.22;;;;;;;;;;4991682;28;20046;-69
2021/09/01 07:16:19;;;;;;;15.40;3.95;;;;;;;;;;4992746;28;20076;-70
2021/09/01 07:18:45;;;;;;;17.52;4.15;;;;;;;;;;5010339;28;20099;-69
2021/09/01 07:21:13;;;;;;;15.52;3.97;;;;;;;;;;4992009;28;20054;-69
2021/09/01 07:23:39;;;;;;;14.35;3.50;;;;;;;;;;4992470;28;20050;-69
2021/09/01 07:26:05;;;;;;;12.38;4.13;;;;;;;;;;4992664;28;20058;-69
2021/09/01 07:28:31;;;;;;;13.45;3.70;;;;;;;;;;4992156;28;20191;-69
2021/09/01 07:30:58;;;;;;;15.00;3.78;;;;;;;;;;4992762;28;20048;-69
2021/09/01 07:33:24;;;;;;;13.52;3.38;;;;;;;;;;4991897;28;20133;-69
2021/09/01 07:35:50;;;;;;;10.55;3.38;;;;;;;;;;4994773;28;20094;-69
2021/09/01 07:38:16;;;;;;;14.48;3.72;;;;;;;;;;4996576;28;20105;-69
2021/09/01 07:40:42;;;;;;;12.52;3.90;;;;;;;;;;5013051;28;20045;-69
2021/09/01 07:43:09;;;;;;;13.00;3.65;;;;;;;;;;4996446;28;20438;-69
2021/09/01 07:45:35;;;;;;;11.55;3.88;;;;;;;;;;4995537;28;20489;-70
2021/09/01 07:48:01;;;;;;;11.88;3.65;;;;;;;;;;5011528;28;20053;-70
2021/09/01 07:50:31;;;;;;;13.55;3.65;;;;;;;;;;5013956;28;20357;-70
2021/09/01 07:52:58;;;;;;;15.05;4.75;;;;;;;;;;4996063;28;20050;-70
2021/09/01 07:55:24;;;;;;;17.00;4.75;;;;;;;;;;4995257;28;20042;-70
2021/09/01 07:57:50;;;;;;;20.13;4.38;;;;;;;;;;4982289;28;20048;-69
2021/09/01 08:00:17;;;;;;;13.15;3.60;;;;;;;;;;4996178;28;20111;-70
2021/09/01 08:02:43;;;;;;;13.60;4.10;;;;;;;;;;4993644;28;20595;-69
2021/09/01 08:05:09;;;;;;;15.27;3.80;;;;;;;;;;4991550;28;20092;-70
2021/09/01 08:07:36;;;;;;;10.18;3.38;;;;;;;;;;4994288;28;20038;-70
2021/09/01 08:10:02;;;;;;;13.25;3.53;;;;;;;;;;4994509;28;20041;-70
2021/09/01 08:12:28;;;;;;;13.80;4.05;;;;;;;;;;4995463;28;20042;-69
2021/09/01 08:14:55;;;;;;;21.30;4.65;;;;;;;;;;4994776;28;20045;-70
2021/09/01 08:17:21;;;;;;;13.20;3.80;;;;;;;;;;4993335;28;20046;-70
2021/09/01 08:19:47;;;;;;;14.35;4.00;;;;;;;;;;4995145;28;20381;-70
2021/09/01 08:22:14;;;;;;;13.75;5.28;;;;;;;;;;4990667;28;20056;-69
2021/09/01 08:24:40;;;;;;;12.70;3.60;;;;;;;;;;4993834;28;20041;-70
2021/09/01 08:27:07;;;;;;;14.30;4.03;;;;;;;;;;4997128;28;20045;-70
2021/09/01 08:29:34;;;;;;;11.45;3.58;;;;;;;;;;4989886;28;20038;-69
2021/09/01 08:32:00;;;;;;;14.43;3.83;;;;;;;;;;5012609;28;20362;-70
2021/09/01 08:34:26;;;;;;;12.90;3.42;;;;;;;;;;4978390;28;20108;-69
2021/09/01 08:36:53;;;;;;;12.77;3.70;;;;;;;;;;5009756;28;20074;-70
2021/09/01 08:39:19;;;;;;;11.45;3.25;;;;;;;;;;4994871;28;20397;-70
2021/09/01 08:41:46;;;;;;;17.00;3.97;;;;;;;;;;4990515;28;20059;-69
2021/09/01 08:44:13;;;;;;;11.25;3.35;;;;;;;;;;4993474;28;20503;-69
2021/09/01 08:46:40;;;;;;;11.98;4.00;;;;;;;;;;4993150;28;20049;-69
2021/09/01 08:49:06;;;;;;;12.50;3.88;;;;;;;;;;4990578;28;20090;-69
2021/09/01 08:51:32;;;;;;;8.98;3.20;;;;;;;;;;4991607;28;20373;-69
2021/09/01 08:53:59;;;;;;;13.60;3.58;;;;;;;;;;4991332;28;20042;-69
2021/09/01 08:56:26;;;;;;;16.05;3.85;;;;;;;;;;4987809;28;20099;-70
2021/09/01 08:58:52;;;;;;;14.88;4.03;;;;;;;;;;4991603;28;20393;-70
2021/09/01 09:01:37;;;;;;;11.38;3.65;;;;;;;;;;4972080;28;20046;-70
2021/09/01 09:04:03;;;;;;;10.63;3.40;;;;;;;;;;4989344;28;20052;-71
2021/09/01 09:06:44;;;;;;;11.50;4.10;;;;;;;;;;4989380;28;20081;-70
2021/09/01 09:09:13;;;;;;;13.98;3.83;;;;;;;;;;4989402;28;20478;-70
2021/09/01 09:11:39;;;;;;;12.52;3.40;;;;;;;;;;4990837;28;20202;-70
2021/09/01 09:14:23;;;;;;;9.73;3.55;;;;;;;;;;4990047;28;20050;-70
2021/09/01 09:16:49;;;;;;;;;;;;;;;;;;4990581;28;20083;-70
2021/09/01 09:19:15;;;;;;;13.18;2.88;;;;;;;;;;4989599;28;20018;-69
2021/09/01 09:21:41;;;;;;;15.20;3.25;;;;;;;;;;4989722;28;20078;-70
2021/09/01 09:24:19;;;;;;;13.32;4.40;;;;;;;;;;4990874;28;20073;-71
2021/09/01 09:26:45;;;;;;;20.10;5.22;;;;;;;;;;4989055;28;20517;-71
2021/09/01 09:29:13;;;;;;;14.50;3.58;;;;;;;;;;4990757;28;20044;-71
2021/09/01 09:31:40;;;;;;;12.07;3.63;;;;;;;;;;4991323;28;20038;-71
2021/09/01 09:34:08;;;;;;;11.68;3.60;;;;;;;;;;4988147;28;20137;-73
2021/09/01 09:36:35;;;;;;;13.02;3.72;;;;;;;;;;4989860;28;20088;-75
2021/09/01 09:39:01;;;;;;;14.43;3.70;;;;;;;;;;4973516;28;20138;-71
2021/09/01 09:41:29;;;;;;;9.75;2.88;;;;;;;;;;4988922;28;20105;-71
2021/09/01 09:43:56;;;;;;;9.50;3.42;;;;;;;;;;4989690;28;20125;-71
2021/09/01 09:46:23;;;;;;;12.63;3.30;;;;;;;;;;4990693;28;20480;-71
2021/09/01 09:48:50;;;;;;;8.00;2.90;;;;;;;;;;4989009;28;20433;-71
2021/09/01 09:51:17;;;;;;;8.90;3.20;;;;;;;;;;4989451;28;20439;-71
2021/09/01 09:53:46;;;;;;;12.95;3.92;;;;;;;;;;4991330;28;20382;-77
2021/09/01 09:56:17;;;;;;;10.32;2.88;;;;;;;;;;4967202;28;21614;-72
2021/09/01 09:58:45;;;;;;;7.40;3.25;;;;;;;;;;4989016;28;20129;-73
2021/09/01 10:01:12;;;;;;;12.20;3.33;;;;;;;;;;4972397;28;20045;-72
2021/09/01 10:03:38;;;;;;;9.82;3.05;;;;;;;;;;4989726;28;20038;-71
2021/09/01 10:06:06;;;;;;;8.95;3.22;;;;;;;;;;4988382;28;20038;-71
2021/09/01 10:08:33;;;;;;;10.45;3.33;;;;;;;;;;4988500;28;20100;-71
2021/09/01 10:11:00;;;;;;;14.15;3.30;;;;;;;;;;4989591;28;20126;-71
2021/09/01 10:13:27;;;;;;;6.20;2.72;;;;;;;;;;4989407;28;20038;-71
2021/09/01 10:15:56;;;;;;;11.35;3.47;;;;;;;;;;4987323;28;20054;-71
2021/09/01 10:18:22;;;;;;;10.35;2.97;;;;;;;;;;4989431;28;20442;-71
2021/09/01 10:20:48;;;;;;;11.18;2.72;;;;;;;;;;4989850;28;20050;-71
2021/09/01 10:23:15;;;;;;;13.38;2.95;;;;;;;;;;4989735;28;20358;-72
2021/09/01 10:25:45;;;;;;;10.93;3.08;;;;;;;;;;4988553;28;20038;-71
2021/09/01 10:28:21;;;;;;;6.68;2.83;;;;;;;;;;4967077;28;20055;-70
2021/09/01 10:31:19;;;;;;;14.02;3.63;;;;;;;;;;4969254;28;20378;-71
2021/09/01 10:33:47;;;;;;;11.90;3.72;;;;;;;;;;4987110;28;20062;-70
2021/09/01 10:36:24;;;;;;;8.27;2.95;;;;;;;;;;4987550;28;20046;-71
2021/09/01 10:38:52;;;;;;;10.18;2.90;;;;;;;;;;4989418;28;20477;-70
2021/09/01 10:41:28;;;;;;;9.60;3.35;;;;;;;;;;4989391;28;20042;-70
2021/09/01 10:43:55;;;;;;;12.35;3.88;;;;;;;;;;4988022;28;20060;-70
2021/09/01 10:46:21;;;;;;;9.18;3.63;;;;;;;;;;4991678;28;20173;-71
2021/09/01 10:48:55;;;;;;;11.93;3.67;;;;;;;;;;4989343;28;20066;-70
2021/09/01 10:51:28;;;;;;;8.52;3.75;;;;;;;;;;4990278;28;20152;-70
2021/09/01 10:53:54;;;;;;;11.48;3.10;;;;;;;;;;4985659;28;20504;-71
2021/09/01 10:56:21;;;;;;;10.32;3.63;;;;;;;;;;4986846;28;20050;-71
2021/09/01 10:58:48;;;;;;;10.38;3.78;;;;;;;;;;4987220;28;20049;-71
2021/09/01 11:01:16;;;;;;;10.27;3.60;;;;;;;;;;4968640;28;20366;-71
2021/09/01 11:03:47;;;;;;;9.02;3.35;;;;;;;;;;4989808;28;20122;-71
2021/09/01 11:06:13;;;;;;;12.55;4.00;;;;;;;;;;4986911;28;20125;-71
2021/09/01 11:08:55;;;;;;;11.13;3.70;;;;;;;;;;4989927;28;20042;-71
2021/09/01 11:11:21;;;;;;;13.48;3.92;;;;;;;;;;4990939;28;20050;-71
2021/09/01 11:13:47;;;;;;;12.27;3.65;;;;;;;;;;4994638;28;20050;-71
2021/09/01 11:16:17;;;;;;;12.65;3.33;;;;;;;;;;4993372;28;20050;-71
2021/09/01 11:19:02;;;;;;;8.93;3.42;;;;;;;;;;4993861;28;20388;-71
2021/09/01 11:21:29;;;;;;;7.40;3.05;;;;;;;;;;4993825;28;20458;-71
2021/09/01 11:23:58;;;;;;;11.48;3.65;;;;;;;;;;4992540;28;20185;-71
2021/09/01 11:26:28;;;;;;;12.40;3.67;;;;;;;;;;4991691;28;20038;-71
2021/09/01 11:28:54;;;;;;;8.73;3.53;;;;;;;;;;4994002;28;20486;-71
2021/09/01 11:31:21;;;;;;;14.60;4.07;;;;;;;;;;4992538;28;20129;-71
2021/09/01 11:33:47;;;;;;;11.43;3.92;;;;;;;;;;4991632;28;20055;-71
2021/09/01 11:36:13;;;;;;;11.65;3.63;;;;;;;;;;4991650;28;20489;-71
2021/09/01 11:38:46;;;;;;;12.30;3.30;;;;;;;;;;5008907;28;20409;-70
2021/09/01 11:41:13;;;;;;;11.07;4.35;;;;;;;;;;4991931;28;20430;-71
2021/09/01 11:43:39;;;;;;;11.68;4.82;;;;;;;;;;4992397;28;20125;-71
2021/09/01 11:46:05;;;;;;;12.52;5.07;;;;;;;;;;4993933;28;20473;-71
2021/09/01 11:48:39;;;;;;;12.68;4.43;;;;;;;;;;4991251;28;20461;-71
2021/09/01 11:51:06;;;;;;;16.10;6.13;;;;;;;;;;4993311;28;20129;-71
2021/09/01 11:53:40;;;;;;;12.60;5.10;;;;;;;;;;4993123;28;20341;-71
2021/09/01 11:56:07;;;;;;;12.07;4.95;;;;;;;;;;4991952;28;20457;-71
2021/09/01 11:58:33;;;;;;;15.40;5.65;;;;;;;;;;4974800;28;20074;-71
2021/09/01 12:01:00;;;;;;;12.40;5.45;;;;;;;;;;4990934;28;20045;-71
2021/09/01 12:03:27;;;;;;;12.48;4.95;;;;;;;;;;4992938;28;20122;-71
2021/09/01 12:06:09;;;;;;;15.23;6.07;;;;;;;;;;4991941;28;20046;-71
2021/09/01 12:08:42;;;;;;;19.95;6.28;;;;;;;;;;4974519;28;20050;-71
2021/09/01 12:11:09;;;;;;;16.73;6.40;;;;;;;;;;4993249;28;20066;-71
2021/09/01 12:13:39;;;;;;;15.57;6.38;;;;;;;;;;4991589;28;20191;-71
2021/09/01 12:16:06;;;;;;;14.40;5.80;;;;;;;;;;4992343;28;20044;-71
2021/09/01 12:18:50;;;;;;;17.77;5.82;;;;;;;;;;4991147;28;20074;-71
2021/09/01 12:21:17;;;;;;;18.85;6.32;;;;;;;;;;4992686;28;20035;-71
2021/09/01 12:23:44;;;;;;;13.77;5.10;;;;;;;;;;4989557;28;20054;-71
2021/09/01 12:26:11;;;;;;;16.77;6.07;;;;;;;;;;4991495;28;20145;-71
2021/09/01 12:28:45;;;;;;;16.45;5.57;;;;;;;;;;4989539;28;20099;-71
2021/09/01 12:31:23;;;;;;;12.45;5.68;;;;;;;;;;4991684;28;20058;-71
2021/09/01 12:33:49;;;;;;;14.38;5.35;;;;;;;;;;4991178;28;20489;-71
2021/09/01 12:36:27;;;;;;;17.55;5.80;;;;;;;;;;4991887;28;20045;-71
2021/09/01 12:38:55;;;;;;;18.90;6.82;;;;;;;;;;4987781;28;20188;-71
2021/09/01 12:41:22;;;;;;;16.67;6.55;;;;;;;;;;4994699;28;20556;-71
2021/09/01 12:43:57;;;;;;;14.90;6.25;;;;;;;;;;4990490;28;20062;-71
2021/09/01 12:46:23;;;;;;;17.13;6.22;;;;;;;;;;4991333;28;20519;-71
2021/09/01 12:48:50;;;;;;;14.73;5.93;;;;;;;;;;5000307;28;20057;-71
2021/09/01 12:51:16;;;;;;;15.10;5.45;;;;;;;;;;4991369;28;20142;-71
2021/09/01 12:53:43;;;;;;;12.43;5.07;;;;;;;;;;4994006;28;20457;-71
2021/09/01 12:56:09;;;;;;;15.35;5.95;;;;;;;;;;4993695;28;20050;-71
2021/09/01 12:58:36;;;;;;;14.80;4.43;;;;;;;;;;4993399;28;20408;-71
2021/09/01 13:01:02;;;;;;;13.65;5.47;;;;;;;;;;5007634;28;20050;-71
2021/09/01 13:03:28;;;;;;;14.85;6.05;;;;;;;;;;5010828;28;20045;-71
2021/09/01 13:05:55;;;;;;;13.13;5.55;;;;;;;;;;4993137;28;20085;-71
2021/09/01 13:08:21;;;;;;;12.68;5.30;;;;;;;;;;5011452;28;20050;-71
2021/09/01 13:10:47;;;;;;;11.88;5.68;;;;;;;;;;4992809;28;20401;-71
2021/09/01 13:13:15;;;;;;;11.77;4.82;;;;;;;;;;4992823;28;20050;-71
2021/09/01 13:15:41;;;;;;;13.23;5.45;;;;;;;;;;4993381;28;20058;-71
2021/09/01 13:18:07;;;;;;;15.77;5.00;;;;;;;;;;4992608;28;20054;-71
2021/09/01 13:20:37;;;;;;;13.95;5.82;;;;;;;;;;5008540;28;20057;-71
2021/09/01 13:23:03;;;;;;;18.80;5.85;;;;;;;;;;4993193;28;20437;-71
2021/09/01 13:25:29;;;;;;;12.50;5.65;;;;;;;;;;5009858;28;20038;-71
2021/09/01 13:27:56;;;;;;;15.32;5.47;;;;;;;;;;5010534;28;20401;-71
2021/09/01 13:30:24;;;;;;;12.85;5.78;;;;;;;;;;5010382;28;20054;-71
2021/09/01 13:32:50;;;;;;;14.18;5.43;;;;;;;;;;4991322;28;20089;-71
2021/09/01 13:35:16;;;;;;;12.98;5.32;;;;;;;;;;5009186;28;20263;-71
2021/09/01 13:37:42;;;;;;;12.07;5.10;;;;;;;;;;4976519;28;20559;-71
2021/09/01 13:40:09;;;;;;;14.68;5.38;;;;;;;;;;4992183;28;20152;-71
2021/09/01 13:42:35;;;;;;;14.48;5.88;;;;;;;;;;4993342;28;20115;-71
2021/09/01 13:45:01;;;;;;;10.93;5.97;;;;;;;;;;5009141;28;20046;-71
2021/09/01 13:47:28;;;;;;;13.07;5.38;;;;;;;;;;4992543;28;20057;-71
2021/09/01 13:49:54;;;;;;;11.75;5.15;;;;;;;;;;5010490;28;20127;-71
2021/09/01 13:52:20;;;;;;;13.63;4.72;;;;;;;;;;5007535;28;20057;-71
2021/09/01 13:54:46;;;;;;;10.75;5.60;;;;;;;;;;4976095;28;20064;-71
2021/09/01 13:57:13;;;;;;;16.35;5.65;;;;;;;;;;4992582;28;20168;-71
2021/09/01 13:59:39;;;;;;;12.85;5.60;;;;;;;;;;4992844;28;20053;-71
2021/09/01 14:02:05;;;;;;;12.20;6.20;;;;;;;;;;4988852;28;20104;-71
2021/09/01 14:04:31;;;;;;;13.57;5.35;;;;;;;;;;5009324;28;20042;-71
2021/09/01 14:06:58;;;;;;;11.00;5.60;;;;;;;;;;4992664;28;20460;-71
2021/09/01 14:09:24;;;;;;;12.52;4.93;;;;;;;;;;4991765;28;20512;-71
2021/09/01 14:11:50;;;;;;;14.45;6.13;;;;;;;;;;5009117;28;20045;-71
2021/09/01 14:14:16;;;;;;;12.00;5.50;;;;;;;;;;5009205;28;20312;-71
2021/09/01 14:16:42;;;;;;;14.23;5.85;;;;;;;;;;4989925;28;20165;-71
2021/09/01 14:19:12;;;;;;;15.10;5.63;;;;;;;;;;5009434;28;20473;-71
2021/09/01 14:21:38;;;;;;;14.93;5.60;;;;;;;;;;4988440;28;20385;-71
2021/09/01 14:24:04;;;;;;;16.13;5.43;;;;;;;;;;4987537;28;20045;-72
2021/09/01 14:26:31;;;;;;;12.73;4.88;;;;;;;;;;4988999;28;20396;-71
2021/09/01 14:28:57;;;;;;;11.68;4.70;;;;;;;;;;4986208;28;20362;-72
2021/09/01 14:31:23;;;;;;;12.77;4.75;;;;;;;;;;4989288;28;20765;-71